Time;durP1;ratioP1;P1;durP2;ratioP2;P2;SDS_P1;SDS_P2;PMS_P1;PMS_P2;Temp;Humidity;BMP_temperature;BMP_pressure;BME280_temperature;BME280_humidity;BME280_pressure;Samples;Min_cycle;Max_cycle;Signal;HPM_P1;HPM_P2
2022/10/18 00:01:04;;;;;;;;;9.80;9.80;;;;;;;;5057726;27;8853;-81
2022/10/18 00:03:32;;;;;;;;;5.40;5.40;;;;;;;;5034952;27;8849;-81
2022/10/18 00:05:59;;;;;;;;;9.60;8.00;;;;;;;;5034634;27;8951;-81
2022/10/18 00:08:28;;;;;;;;;9.20;9.00;;;;;;;;5038310;27;8850;-81
2022/10/18 00:10:55;;;;;;;;;9.20;9.20;;;;;;;;5046198;27;8910;-81
2022/10/18 00:13:23;;;;;;;;;11.20;9.20;;;;;;;;5010744;28;8826;-81
2022/10/18 00:15:53;;;;;;;;;10.40;10.40;;;;;;;;5024675;27;8849;-80
2022/10/18 00:18:21;;;;;;;;;9.00;9.00;;;;;;;;5045394;28;8835;-80
2022/10/18 00:20:58;;;;;;;;;13.40;11.80;;;;;;;;5051798;27;8868;-80
2022/10/18 00:23:26;;;;;;;;;12.00;10.40;;;;;;;;5025447;27;8841;-81
2022/10/18 00:26:00;;;;;;;;;13.00;11.40;;;;;;;;5038267;27;8853;-81
2022/10/18 00:28:28;;;;;;;;;10.60;10.60;;;;;;;;5051941;27;8841;-82
2022/10/18 00:30:57;;;;;;;;;8.00;8.00;;;;;;;;5047527;27;8845;-80
2022/10/18 00:33:25;;;;;;;;;14.60;10.40;;;;;;;;5054793;27;8849;-81
2022/10/18 00:35:52;;;;;;;;;9.00;9.00;;;;;;;;5044335;27;8843;-81
2022/10/18 00:38:20;;;;;;;;;9.40;7.40;;;;;;;;5032284;27;8841;-81
2022/10/18 00:40:47;;;;;;;;;7.40;6.20;;;;;;;;5029721;27;8968;-82
2022/10/18 00:43:17;;;;;;;;;9.20;9.20;;;;;;;;5029831;28;8894;-78
2022/10/18 00:45:44;;;;;;;;;10.20;10.20;;;;;;;;5054401;27;8979;-79
2022/10/18 00:48:14;;;;;;;;;8.00;8.00;;;;;;;;5020565;28;8857;-80
2022/10/18 00:50:42;;;;;;;;;10.20;9.00;;;;;;;;5030861;27;8874;-79
2022/10/18 00:53:12;;;;;;;;;7.00;7.00;;;;;;;;5030689;27;8837;-79
2022/10/18 00:55:40;;;;;;;;;7.00;5.60;;;;;;;;5065624;27;8811;-79
2022/10/18 00:58:08;;;;;;;;;8.80;7.60;;;;;;;;5030433;28;9656;-79
2022/10/18 01:00:38;;;;;;;;;3.20;3.20;;;;;;;;5042993;28;8887;-79
2022/10/18 01:03:06;;;;;;;;;10.60;8.20;;;;;;;;5029603;28;8831;-80
2022/10/18 01:05:39;;;;;;;;;9.40;9.40;;;;;;;;5026336;28;9020;-80
2022/10/18 01:08:27;;;;;;;;;7.40;7.40;;;;;;;;5067033;27;8843;-80
2022/10/18 01:11:03;;;;;;;;;6.40;6.40;;;;;;;;5070534;27;8845;-80
2022/10/18 01:13:39;;;;;;;;;4.00;3.60;;;;;;;;5026495;28;8839;-80
2022/10/18 01:16:14;;;;;;;;;7.20;7.20;;;;;;;;5035672;27;8839;-80
2022/10/18 01:18:49;;;;;;;;;2.40;2.40;;;;;;;;5035400;27;8835;-80
2022/10/18 01:21:35;;;;;;;;;9.00;9.00;;;;;;;;5031576;27;8841;-79
2022/10/18 01:24:50;;;;;;;;;7.20;6.40;;;;;;;;5042969;28;8937;-80
2022/10/18 01:27:33;;;;;;;;;7.80;7.80;;;;;;;;5033447;28;8849;-80
2022/10/18 01:30:48;;;;;;;;;9.20;7.80;;;;;;;;5084177;27;8856;-80
2022/10/18 01:33:27;;;;;;;;;8.80;7.80;;;;;;;;5078814;28;8961;-79
2022/10/18 01:35:59;;;;;;;;;6.80;6.80;;;;;;;;5061940;28;9123;-79
2022/10/18 01:38:27;;;;;;;;;7.00;7.00;;;;;;;;5040252;27;8983;-80
2022/10/18 01:40:56;;;;;;;;;6.80;6.80;;;;;;;;5033488;28;8856;-80
2022/10/18 01:43:25;;;;;;;;;7.60;6.40;;;;;;;;5041571;27;8830;-80
2022/10/18 01:45:55;;;;;;;;;6.80;6.00;;;;;;;;5074882;27;8840;-80
2022/10/18 01:48:24;;;;;;;;;8.60;7.20;;;;;;;;5045634;27;8861;-80
2022/10/18 01:50:53;;;;;;;;;7.00;7.00;;;;;;;;5045383;27;8880;-80
2022/10/18 01:53:29;;;;;;;;;7.40;7.40;;;;;;;;5065973;27;8853;-79
2022/10/18 01:56:26;;;;;;;;;7.80;7.80;;;;;;;;5037179;27;8838;-79
2022/10/18 01:59:24;;;;;;;;;6.20;6.20;;;;;;;;5044157;27;8856;-81
2022/10/18 02:02:03;;;;;;;;;7.40;7.40;;;;;;;;5008776;27;8973;-79
2022/10/18 02:04:37;;;;;;;;;7.20;7.20;;;;;;;;5080365;27;9280;-79
2022/10/18 02:07:09;;;;;;;;;8.20;8.20;;;;;;;;5050674;27;8909;-79
2022/10/18 02:09:41;;;;;;;;;4.40;4.40;;;;;;;;5059926;27;8833;-79
2022/10/18 02:12:12;;;;;;;;;6.40;6.40;;;;;;;;5064666;27;8953;-78
2022/10/18 02:14:40;;;;;;;;;7.40;6.20;;;;;;;;5056838;27;8871;-79
2022/10/18 02:17:11;;;;;;;;;5.60;4.80;;;;;;;;5076682;27;8865;-78
2022/10/18 02:19:42;;;;;;;;;5.40;5.40;;;;;;;;5031804;27;8865;-78
2022/10/18 02:22:11;;;;;;;;;7.20;7.20;;;;;;;;5093627;27;8875;-78
2022/10/18 02:24:42;;;;;;;;;8.00;8.00;;;;;;;;5032861;27;8902;-79
2022/10/18 02:27:10;;;;;;;;;5.40;5.40;;;;;;;;5042656;27;8859;-79
2022/10/18 02:29:38;;;;;;;;;5.00;5.00;;;;;;;;5014928;27;9352;-79
2022/10/18 02:32:08;;;;;;;;;5.60;5.60;;;;;;;;5037092;27;8849;-79
2022/10/18 02:34:39;;;;;;;;;7.20;5.00;;;;;;;;5042583;27;8827;-79
2022/10/18 02:37:08;;;;;;;;;7.60;7.60;;;;;;;;5033592;27;9341;-79
2022/10/18 02:39:37;;;;;;;;;6.00;6.00;;;;;;;;5038986;27;8831;-78
2022/10/18 02:42:06;;;;;;;;;6.40;6.40;;;;;;;;5037509;27;8839;-79
2022/10/18 02:44:34;;;;;;;;;5.80;5.80;;;;;;;;5050705;27;8848;-79
2022/10/18 02:47:02;;;;;;;;;6.00;6.00;;;;;;;;5035372;27;8893;-79
2022/10/18 02:49:30;;;;;;;;;8.40;7.40;;;;;;;;5043073;27;8845;-81
2022/10/18 02:51:59;;;;;;;;;6.80;6.80;;;;;;;;5019758;28;8853;-82
2022/10/18 02:54:26;;;;;;;;;7.40;7.20;;;;;;;;5028568;28;9623;-81
2022/10/18 02:56:53;;;;;;;;;8.00;6.20;;;;;;;;5037381;27;8861;-79
2022/10/18 02:59:21;;;;;;;;;10.00;8.00;;;;;;;;5044693;27;8871;-79
2022/10/18 03:01:49;;;;;;;;;9.00;7.40;;;;;;;;5035137;27;8835;-80
2022/10/18 03:04:16;;;;;;;;;6.00;5.40;;;;;;;;5023050;28;8889;-78
2022/10/18 03:06:44;;;;;;;;;6.00;4.60;;;;;;;;5046051;27;8988;-79
2022/10/18 03:09:13;;;;;;;;;6.00;6.00;;;;;;;;5045939;27;8862;-79
2022/10/18 03:11:40;;;;;;;;;8.20;7.00;;;;;;;;5044321;27;9608;-79
2022/10/18 03:14:08;;;;;;;;;8.40;8.40;;;;;;;;5045705;27;9042;-81
2022/10/18 03:16:35;;;;;;;;;10.80;6.80;;;;;;;;5046696;27;8841;-80
2022/10/18 03:19:03;;;;;;;;;7.20;7.20;;;;;;;;5044084;27;8857;-79
2022/10/18 03:21:30;;;;;;;;;6.20;6.20;;;;;;;;5029045;27;8908;-81
2022/10/18 03:23:58;;;;;;;;;7.20;7.20;;;;;;;;5046473;27;8881;-81
2022/10/18 03:26:27;;;;;;;;;7.20;6.00;;;;;;;;5045148;27;8850;-81
2022/10/18 03:28:54;;;;;;;;;8.00;6.20;;;;;;;;5034028;27;8863;-81
2022/10/18 03:31:22;;;;;;;;;9.20;7.80;;;;;;;;5052218;27;8845;-80
2022/10/18 03:33:50;;;;;;;;;6.60;6.60;;;;;;;;5041689;27;8860;-81
2022/10/18 03:36:20;;;;;;;;;7.40;7.40;;;;;;;;5033526;27;8846;-81
2022/10/18 03:38:47;;;;;;;;;7.00;5.40;;;;;;;;5087225;27;8874;-80
2022/10/18 03:41:19;;;;;;;;;4.00;4.00;;;;;;;;5049775;27;8851;-80
2022/10/18 03:43:48;;;;;;;;;6.20;6.20;;;;;;;;5043959;27;8862;-79
2022/10/18 03:46:16;;;;;;;;;9.00;6.00;;;;;;;;5049275;27;8879;-80
2022/10/18 03:48:44;;;;;;;;;9.00;7.40;;;;;;;;5027944;27;8981;-79
2022/10/18 03:51:11;;;;;;;;;5.20;5.20;;;;;;;;5028584;27;8854;-80
2022/10/18 03:53:39;;;;;;;;;5.20;5.20;;;;;;;;5051698;27;9779;-80
2022/10/18 03:56:07;;;;;;;;;6.60;6.60;;;;;;;;5051597;27;8888;-80
2022/10/18 03:58:35;;;;;;;;;7.60;6.00;;;;;;;;5046254;27;8891;-80
2022/10/18 04:01:04;;;;;;;;;8.40;8.40;;;;;;;;5042029;27;8827;-80
2022/10/18 04:03:32;;;;;;;;;6.80;6.80;;;;;;;;5045637;27;8853;-79
2022/10/18 04:06:02;;;;;;;;;7.20;7.20;;;;;;;;5044014;27;8887;-80
2022/10/18 04:08:29;;;;;;;;;6.40;6.40;;;;;;;;5046367;27;8841;-81
2022/10/18 04:10:57;;;;;;;;;7.00;7.00;;;;;;;;5036643;27;8875;-81
2022/10/18 04:13:24;;;;;;;;;7.00;5.80;;;;;;;;5046758;27;8856;-80
2022/10/18 04:15:52;;;;;;;;;8.00;6.00;;;;;;;;5048944;27;8843;-79
2022/10/18 04:18:21;;;;;;;;;7.80;7.20;;;;;;;;5052361;27;8898;-80
2022/10/18 04:20:49;;;;;;;;;6.00;6.00;;;;;;;;5046660;27;8911;-80
2022/10/18 04:23:18;;;;;;;;;6.75;6.75;;;;;;;;5029251;28;8944;-80
2022/10/18 04:25:45;;;;;;;;;8.00;7.60;;;;;;;;5043388;27;8814;-79
2022/10/18 04:28:13;;;;;;;;;7.80;7.80;;;;;;;;5023133;28;8846;-79
2022/10/18 04:30:41;;;;;;;;;8.40;8.40;;;;;;;;5044248;27;8891;-80
2022/10/18 04:33:08;;;;;;;;;7.60;6.60;;;;;;;;5057998;27;8836;-80
2022/10/18 04:35:37;;;;;;;;;9.00;9.00;;;;;;;;5042523;27;8861;-80
2022/10/18 04:38:04;;;;;;;;;7.60;7.60;;;;;;;;5049979;28;8973;-81
2022/10/18 04:40:32;;;;;;;;;12.20;10.60;;;;;;;;5033162;27;8873;-81
2022/10/18 04:43:00;;;;;;;;;9.80;6.40;;;;;;;;5056289;27;8835;-81
2022/10/18 04:45:28;;;;;;;;;11.20;10.00;;;;;;;;5062952;28;8874;-81
2022/10/18 04:47:55;;;;;;;;;10.40;7.80;;;;;;;;5033265;28;8938;-81
2022/10/18 04:50:26;;;;;;;;;13.00;9.40;;;;;;;;5050104;27;8851;-82
2022/10/18 04:52:55;;;;;;;;;7.80;7.80;;;;;;;;5044062;27;8920;-81
2022/10/18 04:55:22;;;;;;;;;9.00;9.00;;;;;;;;5044788;27;8822;-81
2022/10/18 04:57:50;;;;;;;;;10.40;10.40;;;;;;;;5051370;27;8929;-81
2022/10/18 05:00:18;;;;;;;;;8.00;8.00;;;;;;;;5040328;28;8927;-80
2022/10/18 05:02:45;;;;;;;;;12.60;12.00;;;;;;;;5022128;28;8956;-79
2022/10/18 05:05:13;;;;;;;;;17.40;11.60;;;;;;;;5044302;28;8837;-80
2022/10/18 05:07:40;;;;;;;;;14.00;11.00;;;;;;;;5052189;28;8976;-80
2022/10/18 05:10:12;;;;;;;;;14.00;11.40;;;;;;;;5076360;27;8871;-79
2022/10/18 05:12:39;;;;;;;;;8.60;8.40;;;;;;;;5060457;27;8838;-76
2022/10/18 05:15:07;;;;;;;;;16.80;15.00;;;;;;;;5024632;27;8849;-77
2022/10/18 05:17:35;;;;;;;;;15.60;11.60;;;;;;;;5048884;27;8887;-75
2022/10/18 05:20:03;;;;;;;;;8.60;7.00;;;;;;;;5041182;27;8851;-78
2022/10/18 05:22:30;;;;;;;;;16.75;16.75;;;;;;;;5051720;27;8867;-77
2022/10/18 05:24:57;;;;;;;;;14.20;11.60;;;;;;;;5076055;27;8843;-78
2022/10/18 05:27:26;;;;;;;;;14.80;14.80;;;;;;;;5053044;27;8877;-77
2022/10/18 05:29:54;;;;;;;;;15.50;13.00;;;;;;;;5047914;27;8837;-77
2022/10/18 05:32:22;;;;;;;;;12.80;11.40;;;;;;;;5047323;27;9950;-79
2022/10/18 05:34:49;;;;;;;;;14.20;12.00;;;;;;;;5042729;27;8861;-79
2022/10/18 05:37:19;;;;;;;;;15.50;15.50;;;;;;;;5060343;27;8858;-79
2022/10/18 05:39:47;;;;;;;;;19.50;17.25;;;;;;;;5055976;27;8867;-77
2022/10/18 05:42:14;;;;;;;;;15.50;13.75;;;;;;;;5060074;27;8975;-78
2022/10/18 05:44:43;;;;;;;;;15.25;15.25;;;;;;;;5063794;27;8877;-78
2022/10/18 05:47:14;;;;;;;;;12.60;12.60;;;;;;;;5058189;27;8849;-78
2022/10/18 05:49:41;;;;;;;;;14.75;13.75;;;;;;;;5032387;27;8831;-76
2022/10/18 05:52:09;;;;;;;;;19.50;17.75;;;;;;;;5050132;27;8829;-78
2022/10/18 05:54:36;;;;;;;;;18.00;16.00;;;;;;;;5037768;27;8919;-76
2022/10/18 05:57:04;;;;;;;;;15.00;12.75;;;;;;;;5024783;27;8853;-78
2022/10/18 05:59:31;;;;;;;;;12.00;12.00;;;;;;;;5060620;27;8892;-77
2022/10/18 06:02:00;;;;;;;;;13.40;12.00;;;;;;;;5044902;27;8839;-78
2022/10/18 06:04:27;;;;;;;;;12.50;11.00;;;;;;;;5070380;27;8851;-77
2022/10/18 06:06:55;;;;;;;;;13.75;12.00;;;;;;;;5061691;27;8853;-76
2022/10/18 06:09:23;;;;;;;;;10.00;9.00;;;;;;;;5040734;27;8938;-73
2022/10/18 06:11:50;;;;;;;;;10.00;8.50;;;;;;;;5045250;27;8853;-74
2022/10/18 06:14:17;;;;;;;;;11.50;10.00;;;;;;;;5024085;27;8871;-75
2022/10/18 06:16:45;;;;;;;;;10.00;10.00;;;;;;;;5030918;27;8853;-74
2022/10/18 06:19:14;;;;;;;;;15.75;13.50;;;;;;;;5053000;27;8857;-75
2022/10/18 06:21:43;;;;;;;;;17.75;17.00;;;;;;;;5049034;27;8845;-74
2022/10/18 06:24:10;;;;;;;;;15.00;13.25;;;;;;;;5026005;27;8871;-74
2022/10/18 06:26:38;;;;;;;;;15.50;13.25;;;;;;;;5048029;27;9636;-74
2022/10/18 06:29:05;;;;;;;;;17.50;13.00;;;;;;;;5028019;27;8834;-74
2022/10/18 06:31:33;;;;;;;;;11.50;10.25;;;;;;;;5047232;27;8911;-74
2022/10/18 06:34:01;;;;;;;;;14.75;10.50;;;;;;;;5036378;27;8869;-74
2022/10/18 06:36:30;;;;;;;;;9.00;7.50;;;;;;;;5015997;28;8935;-75
2022/10/18 06:38:58;;;;;;;;;11.00;10.50;;;;;;;;5017895;28;8865;-75
2022/10/18 06:41:26;;;;;;;;;10.00;8.60;;;;;;;;5053495;27;8888;-74
2022/10/18 06:43:56;;;;;;;;;12.25;10.25;;;;;;;;5033141;27;8845;-74
2022/10/18 06:46:24;;;;;;;;;12.25;11.00;;;;;;;;5021754;27;8911;-74
2022/10/18 06:48:51;;;;;;;;;11.00;9.50;;;;;;;;5038841;27;8851;-74
2022/10/18 06:51:19;;;;;;;;;15.75;14.25;;;;;;;;5041221;27;8869;-74
2022/10/18 06:53:48;;;;;;;;;14.50;11.00;;;;;;;;5039429;27;8869;-76
2022/10/18 06:56:15;;;;;;;;;13.50;12.25;;;;;;;;5049188;27;8823;-75
2022/10/18 06:58:44;;;;;;;;;11.25;9.75;;;;;;;;5032875;27;8884;-75
2022/10/18 07:01:12;;;;;;;;;11.00;9.25;;;;;;;;5043345;27;8841;-73
2022/10/18 07:03:40;;;;;;;;;9.00;8.25;;;;;;;;5063412;27;8934;-73
2022/10/18 07:06:10;;;;;;;;;10.00;8.25;;;;;;;;5048002;27;8872;-72
2022/10/18 07:08:37;;;;;;;;;8.75;8.75;;;;;;;;5036629;27;8858;-72
2022/10/18 07:11:10;;;;;;;;;9.00;7.75;;;;;;;;5014570;28;8861;-72
2022/10/18 07:13:37;;;;;;;;;8.75;8.75;;;;;;;;5050515;27;9031;-72
2022/10/18 07:16:06;;;;;;;;;11.50;9.25;;;;;;;;5049085;27;8907;-72
2022/10/18 07:18:34;;;;;;;;;10.75;9.00;;;;;;;;5044446;27;8865;-75
2022/10/18 07:21:03;;;;;;;;;10.50;7.75;;;;;;;;5059809;27;8846;-77
2022/10/18 07:23:32;;;;;;;;;8.50;8.50;;;;;;;;5044604;27;8827;-77
2022/10/18 07:26:00;;;;;;;;;8.00;8.00;;;;;;;;5028040;27;9615;-76
2022/10/18 07:28:29;;;;;;;;;10.50;8.75;;;;;;;;5049247;27;8942;-76
2022/10/18 07:30:57;;;;;;;;;6.75;6.75;;;;;;;;5051474;27;9585;-74
2022/10/18 07:33:25;;;;;;;;;9.25;9.25;;;;;;;;5034327;27;8849;-74
2022/10/18 07:35:52;;;;;;;;;6.80;6.60;;;;;;;;5015421;28;8861;-74
2022/10/18 07:38:21;;;;;;;;;6.00;6.00;;;;;;;;5033743;27;8839;-73
2022/10/18 07:40:49;;;;;;;;;9.60;5.20;;;;;;;;5053076;27;9685;-73
2022/10/18 07:43:19;;;;;;;;;9.80;7.00;;;;;;;;5054162;27;8854;-74
2022/10/18 07:45:53;;;;;;;;;7.20;7.00;;;;;;;;5040186;27;8852;-74
2022/10/18 07:48:21;;;;;;;;;6.50;5.00;;;;;;;;5039346;27;8887;-78
2022/10/18 07:50:49;;;;;;;;;7.00;7.00;;;;;;;;5031530;27;8945;-78
2022/10/18 07:53:17;;;;;;;;;7.75;6.00;;;;;;;;5018286;27;8957;-76
2022/10/18 07:55:46;;;;;;;;;6.00;6.00;;;;;;;;5050949;27;8809;-76
2022/10/18 07:58:14;;;;;;;;;8.80;8.60;;;;;;;;5024701;28;8862;-75
2022/10/18 08:00:41;;;;;;;;;8.75;6.25;;;;;;;;5038398;27;8857;-75
2022/10/18 08:03:10;;;;;;;;;10.20;8.20;;;;;;;;5021546;27;8873;-75
2022/10/18 08:05:38;;;;;;;;;7.60;6.40;;;;;;;;5022008;28;8915;-78
2022/10/18 08:08:05;;;;;;;;;9.40;8.20;;;;;;;;5029037;27;8835;-75
2022/10/18 08:10:35;;;;;;;;;7.00;7.00;;;;;;;;5028329;27;8857;-76
2022/10/18 08:13:02;;;;;;;;;9.00;7.20;;;;;;;;5023369;27;8929;-77
2022/10/18 08:15:30;;;;;;;;;10.20;7.80;;;;;;;;5030138;27;8839;-76
2022/10/18 08:17:57;;;;;;;;;8.40;8.40;;;;;;;;5029580;27;9635;-76
2022/10/18 08:20:26;;;;;;;;;7.40;7.40;;;;;;;;5044939;27;8838;-76
2022/10/18 08:22:54;;;;;;;;;15.00;12.00;;;;;;;;5036553;27;8980;-76
2022/10/18 08:25:21;;;;;;;;;10.60;9.00;;;;;;;;5045448;27;8817;-76
2022/10/18 08:27:49;;;;;;;;;8.40;8.40;;;;;;;;5040452;27;9649;-77
2022/10/18 08:30:17;;;;;;;;;7.60;7.60;;;;;;;;5059678;28;8846;-75
2022/10/18 08:32:45;;;;;;;;;9.20;7.60;;;;;;;;5093946;27;8850;-76
2022/10/18 08:35:12;;;;;;;;;9.60;7.60;;;;;;;;5073669;27;8858;-76
2022/10/18 08:37:41;;;;;;;;;11.00;9.60;;;;;;;;5072984;27;8972;-76
2022/10/18 08:40:12;;;;;;;;;7.00;5.60;;;;;;;;5072501;27;8834;-76
2022/10/18 08:42:57;;;;;;;;;10.00;8.00;;;;;;;;5076606;27;8854;-75
2022/10/18 08:45:25;;;;;;;;;9.00;9.00;;;;;;;;5076977;27;9635;-76
2022/10/18 08:47:56;;;;;;;;;8.40;8.40;;;;;;;;5066507;27;8883;-76
2022/10/18 08:50:26;;;;;;;;;7.60;7.60;;;;;;;;5078613;27;8848;-76
2022/10/18 08:53:01;;;;;;;;;5.20;5.20;;;;;;;;5045461;27;8858;-77
2022/10/18 08:55:35;;;;;;;;;8.20;8.20;;;;;;;;5063924;27;8862;-76
2022/10/18 08:58:04;;;;;;;;;8.20;8.20;;;;;;;;5043112;27;8829;-76
2022/10/18 09:00:35;;;;;;;;;8.60;7.00;;;;;;;;5081552;27;8847;-76
2022/10/18 09:03:18;;;;;;;;;9.20;9.20;;;;;;;;5073832;27;8822;-75
2022/10/18 09:05:50;;;;;;;;;9.60;6.00;;;;;;;;5058130;27;8845;-76
2022/10/18 09:08:48;;;;;;;;;6.00;6.00;;;;;;;;5065879;27;8823;-76
2022/10/18 09:11:25;;;;;;;;;9.40;9.40;;;;;;;;5067790;27;8883;-76
2022/10/18 09:14:26;;;;;;;;;7.20;7.20;;;;;;;;5052138;27;8881;-76
2022/10/18 09:17:01;;;;;;;;;6.40;6.40;;;;;;;;5049662;27;8838;-76
2022/10/18 09:19:42;;;;;;;;;31.50;30.00;;;;;;;;5064723;27;9860;-77
2022/10/18 09:22:13;;;;;;;;;48.50;39.50;;;;;;;;5068717;27;8845;-76
2022/10/18 09:24:48;;;;;;;;;9.80;8.80;;;;;;;;5079866;27;8861;-76
2022/10/18 09:27:17;;;;;;;;;7.60;7.00;;;;;;;;5087187;27;8846;-76
2022/10/18 09:29:56;;;;;;;;;11.00;9.60;;;;;;;;5061558;27;8921;-76
2022/10/18 09:32:32;;;;;;;;;9.20;9.20;;;;;;;;5064311;27;8826;-76
2022/10/18 09:35:05;;;;;;;;;9.80;9.80;;;;;;;;5039999;27;8854;-78
2022/10/18 09:37:35;;;;;;;;;6.00;6.00;;;;;;;;5041944;27;8842;-75
2022/10/18 09:40:14;;;;;;;;;3.80;3.40;;;;;;;;5074583;27;8856;-75
2022/10/18 09:42:46;;;;;;;;;5.80;5.40;;;;;;;;5089212;27;8847;-74
2022/10/18 09:45:24;;;;;;;;;4.80;4.00;;;;;;;;5033905;27;8942;-74
2022/10/18 09:48:01;;;;;;;;;25.80;24.40;;;;;;;;5068066;27;8850;-74
2022/10/18 09:50:31;;;;;;;;;32.60;28.80;;;;;;;;5052360;27;8959;-74
2022/10/18 09:53:06;;;;;;;;;4.80;3.00;;;;;;;;5042424;27;8885;-74
2022/10/18 09:55:38;;;;;;;;;3.00;3.00;;;;;;;;5073273;27;8874;-74
2022/10/18 09:58:07;;;;;;;;;2.00;2.00;;;;;;;;5066199;27;8882;-75
2022/10/18 10:00:39;;;;;;;;;2.20;2.20;;;;;;;;5069538;27;8820;-74
2022/10/18 10:03:10;;;;;;;;;8.00;7.60;;;;;;;;5065376;27;8850;-75
2022/10/18 10:05:37;;;;;;;;;11.00;11.00;;;;;;;;5063954;27;8934;-74
2022/10/18 10:08:05;;;;;;;;;2.60;2.60;;;;;;;;5062122;27;8938;-74
2022/10/18 10:10:33;;;;;;;;;2.00;2.00;;;;;;;;5070215;27;8863;-75
2022/10/18 10:13:07;;;;;;;;;2.00;2.00;;;;;;;;5042662;27;8834;-76
2022/10/18 10:15:35;;;;;;;;;2.00;2.00;;;;;;;;5057258;27;8834;-74
2022/10/18 10:18:06;;;;;;;;;3.60;1.60;;;;;;;;5061587;27;8853;-74
2022/10/18 10:20:37;;;;;;;;;2.00;2.00;;;;;;;;5060751;27;8840;-74
2022/10/18 10:23:09;;;;;;;;;4.20;2.20;;;;;;;;5079639;27;9762;-74
2022/10/18 10:25:38;;;;;;;;;1.60;1.60;;;;;;;;5058765;27;8839;-74
2022/10/18 10:28:12;;;;;;;;;2.00;2.00;;;;;;;;5101111;27;8930;-76
2022/10/18 10:30:39;;;;;;;;;2.00;2.00;;;;;;;;5057159;27;8862;-75
2022/10/18 10:33:11;;;;;;;;;3.00;3.00;;;;;;;;5062160;27;8858;-76
2022/10/18 10:35:40;;;;;;;;;2.00;2.00;;;;;;;;5061241;27;8868;-77
2022/10/18 10:38:08;;;;;;;;;2.20;2.20;;;;;;;;5072866;27;8863;-76
2022/10/18 10:40:36;;;;;;;;;5.00;5.00;;;;;;;;5072266;27;8848;-77
2022/10/18 10:43:14;;;;;;;;;1.20;1.20;;;;;;;;5072885;27;8842;-77
2022/10/18 10:45:55;;;;;;;;;0.80;0.80;;;;;;;;5066863;27;8870;-76
2022/10/18 10:48:23;;;;;;;;;0.80;0.80;;;;;;;;5080242;27;8844;-77
2022/10/18 10:50:54;;;;;;;;;1.20;1.20;;;;;;;;5076777;27;8846;-76
2022/10/18 10:53:44;;;;;;;;;0.40;0.40;;;;;;;;5050650;27;8850;-77
2022/10/18 10:56:23;;;;;;;;;1.60;1.60;;;;;;;;5060220;27;8844;-77
2022/10/18 10:58:53;;;;;;;;;1.00;1.00;;;;;;;;5066012;27;8880;-76
2022/10/18 11:01:26;;;;;;;;;1.00;1.00;;;;;;;;5074184;27;8874;-77
2022/10/18 11:03:56;;;;;;;;;13.60;13.60;;;;;;;;5083644;27;8820;-76
2022/10/18 11:06:35;;;;;;;;;2.80;2.80;;;;;;;;5066983;27;8828;-77
2022/10/18 11:09:06;;;;;;;;;17.40;16.40;;;;;;;;5087822;27;9629;-76
2022/10/18 11:11:36;;;;;;;;;21.20;21.20;;;;;;;;5063192;27;9641;-77
2022/10/18 11:14:14;;;;;;;;;38.40;32.20;;;;;;;;5062139;27;8827;-76
2022/10/18 11:16:51;;;;;;;;;4.00;4.00;;;;;;;;5058001;27;8832;-77
2022/10/18 11:19:33;;;;;;;;;5.80;5.20;;;;;;;;5066279;27;9727;-76
2022/10/18 11:22:02;;;;;;;;;11.20;11.20;;;;;;;;5069019;27;8882;-75
2022/10/18 11:24:31;;;;;;;;;36.20;33.60;;;;;;;;5038070;27;8903;-74
2022/10/18 11:27:05;;;;;;;;;5.00;5.00;;;;;;;;5055329;27;8854;-74
2022/10/18 11:29:47;;;;;;;;;5.20;3.20;;;;;;;;5139398;27;8842;-79
2022/10/18 11:32:19;;;;;;;;;9.20;8.00;;;;;;;;5071233;27;9252;-77
2022/10/18 11:34:59;;;;;;;;;3.60;3.60;;;;;;;;5043724;27;8835;-76
2022/10/18 11:37:40;;;;;;;;;2.20;2.00;;;;;;;;5082035;27;8823;-77
2022/10/18 11:40:23;;;;;;;;;0.80;0.80;;;;;;;;5059247;27;8885;-77
2022/10/18 11:42:58;;;;;;;;;2.00;2.00;;;;;;;;5040318;27;8868;-77
2022/10/18 11:45:33;;;;;;;;;4.20;4.20;;;;;;;;5075109;27;9658;-77
2022/10/18 11:48:10;;;;;;;;;0.20;0.20;;;;;;;;5045354;27;8850;-79
2022/10/18 11:50:48;;;;;;;;;1.20;1.20;;;;;;;;5043080;27;8889;-79
2022/10/18 11:53:25;;;;;;;;;1.40;0.40;;;;;;;;5059267;27;8957;-78
2022/10/18 11:56:02;;;;;;;;;1.80;0.20;;;;;;;;5063235;27;8848;-79
2022/10/18 11:58:42;;;;;;;;;0.20;0.20;;;;;;;;5059852;27;9614;-79
2022/10/18 12:01:20;;;;;;;;;9.00;8.20;;;;;;;;5074059;27;8948;-80
2022/10/18 12:03:57;;;;;;;;;0.20;0.20;;;;;;;;5058090;27;8852;-79
2022/10/18 12:06:29;;;;;;;;;1.20;1.20;;;;;;;;5071078;27;8848;-78
2022/10/18 12:09:00;;;;;;;;;0.00;0.00;;;;;;;;5042813;27;8840;-81
2022/10/18 12:11:32;;;;;;;;;0.00;0.00;;;;;;;;5047454;27;8862;-81
2022/10/18 12:14:01;;;;;;;;;0.00;0.00;;;;;;;;5057900;27;8846;-76
2022/10/18 12:16:34;;;;;;;;;0.00;0.00;;;;;;;;5083134;27;8955;-75
2022/10/18 12:19:03;;;;;;;;;0.00;0.00;;;;;;;;5090323;27;8874;-75
2022/10/18 12:21:33;;;;;;;;;0.20;0.20;;;;;;;;5072078;27;8838;-76
2022/10/18 12:24:04;;;;;;;;;0.00;0.00;;;;;;;;5070966;27;8922;-75
2022/10/18 12:26:31;;;;;;;;;1.00;1.00;;;;;;;;5073621;27;9009;-83
2022/10/18 12:29:07;;;;;;;;;0.00;0.00;;;;;;;;5062827;27;8820;-76
2022/10/18 12:31:40;;;;;;;;;0.80;0.80;;;;;;;;5072120;27;8870;-77
2022/10/18 12:34:26;;;;;;;;;0.80;0.80;;;;;;;;5071564;27;8842;-78
2022/10/18 12:37:10;;;;;;;;;0.60;0.60;;;;;;;;5048694;27;8856;-77
2022/10/18 12:39:41;;;;;;;;;1.00;1.00;;;;;;;;5057216;27;8961;-77
2022/10/18 12:42:19;;;;;;;;;2.00;2.00;;;;;;;;5039365;27;8844;-78
2022/10/18 12:44:50;;;;;;;;;0.20;0.20;;;;;;;;5058067;27;8858;-77
2022/10/18 12:47:27;;;;;;;;;0.60;0.60;;;;;;;;5077301;27;8848;-78
2022/10/18 12:49:58;;;;;;;;;0.00;0.00;;;;;;;;5075447;27;8960;-77
2022/10/18 12:52:28;;;;;;;;;0.40;0.40;;;;;;;;5052936;27;8866;-78
2022/10/18 12:55:06;;;;;;;;;0.00;0.00;;;;;;;;5060532;27;8816;-77
2022/10/18 12:58:16;;;;;;;;;0.20;0.20;;;;;;;;5067791;27;8844;-78
2022/10/18 13:01:00;;;;;;;;;0.80;0.80;;;;;;;;5064283;27;8835;-77
2022/10/18 13:03:41;;;;;;;;;0.80;0.80;;;;;;;;5062122;27;8971;-77
2022/10/18 13:06:09;;;;;;;;;1.20;1.20;;;;;;;;5070401;27;8816;-77
2022/10/18 13:08:42;;;;;;;;;1.20;1.20;;;;;;;;5074501;27;9685;-76
2022/10/18 13:11:26;;;;;;;;;0.80;0.80;;;;;;;;5080084;27;8836;-76
2022/10/18 13:14:26;;;;;;;;;0.20;0.20;;;;;;;;5049957;27;8844;-76
2022/10/18 13:17:00;;;;;;;;;1.20;1.20;;;;;;;;5075020;27;8850;-76
2022/10/18 13:19:34;;;;;;;;;2.80;2.60;;;;;;;;5047801;27;8890;-76
2022/10/18 13:22:19;;;;;;;;;1.60;1.60;;;;;;;;5054225;27;8966;-76
2022/10/18 13:25:00;;;;;;;;;2.80;1.20;;;;;;;;5056564;27;8880;-76
2022/10/18 13:27:36;;;;;;;;;2.00;2.00;;;;;;;;5055723;27;8918;-76
2022/10/18 13:30:30;;;;;;;;;1.20;1.20;;;;;;;;5066928;27;8839;-76
2022/10/18 13:33:08;;;;;;;;;2.00;2.00;;;;;;;;5080462;27;8859;-76
2022/10/18 13:35:51;;;;;;;;;2.20;2.20;;;;;;;;5049945;27;8835;-76
2022/10/18 13:38:37;;;;;;;;;2.00;2.00;;;;;;;;5056581;27;8843;-76
2022/10/18 13:41:06;;;;;;;;;2.00;2.00;;;;;;;;5074218;27;8860;-76
2022/10/18 13:44:07;;;;;;;;;3.00;3.00;;;;;;;;5066086;27;8876;-76
2022/10/18 13:47:10;;;;;;;;;3.00;3.00;;;;;;;;5071132;27;8926;-76
2022/10/18 13:49:48;;;;;;;;;2.20;2.20;;;;;;;;5080404;27;8931;-76
2022/10/18 13:52:24;;;;;;;;;2.00;2.00;;;;;;;;5055349;27;8858;-76
2022/10/18 13:55:06;;;;;;;;;2.00;2.00;;;;;;;;5042999;27;8874;-77
2022/10/18 13:57:48;;;;;;;;;2.00;2.00;;;;;;;;5077487;27;8842;-77
2022/10/18 14:00:28;;;;;;;;;2.80;1.80;;;;;;;;5027263;27;8966;-76
2022/10/18 14:03:19;;;;;;;;;2.80;2.60;;;;;;;;5076858;27;8854;-76
2022/10/18 14:05:52;;;;;;;;;3.20;3.20;;;;;;;;5104190;27;8871;-75
2022/10/18 14:08:25;;;;;;;;;5.00;5.00;;;;;;;;5063740;27;8892;-76
2022/10/18 14:11:02;;;;;;;;;4.40;4.40;;;;;;;;5064820;27;9621;-77
2022/10/18 14:13:34;;;;;;;;;4.00;4.00;;;;;;;;5060338;27;8831;-76
2022/10/18 14:16:09;;;;;;;;;3.80;3.80;;;;;;;;5061344;27;8922;-75
2022/10/18 14:18:38;;;;;;;;;4.00;4.00;;;;;;;;5058106;27;8862;-75
2022/10/18 14:21:10;;;;;;;;;1.80;1.80;;;;;;;;5068918;27;8844;-75
2022/10/18 14:23:43;;;;;;;;;2.00;2.00;;;;;;;;5049278;27;8876;-78
2022/10/18 14:26:15;;;;;;;;;2.20;2.20;;;;;;;;5053258;27;8862;-77
2022/10/18 14:28:42;;;;;;;;;3.20;2.40;;;;;;;;5057760;27;9582;-78
2022/10/18 14:31:14;;;;;;;;;0.80;0.80;;;;;;;;5064309;27;8824;-77
2022/10/18 14:33:43;;;;;;;;;1.60;1.60;;;;;;;;5066915;27;8923;-77
2022/10/18 14:36:13;;;;;;;;;0.20;0.20;;;;;;;;5053308;27;8828;-77
2022/10/18 14:38:49;;;;;;;;;1.80;1.80;;;;;;;;5085383;27;8854;-77
2022/10/18 14:41:23;;;;;;;;;1.80;1.80;;;;;;;;5072442;27;8852;-77
2022/10/18 14:43:52;;;;;;;;;1.60;1.60;;;;;;;;5077410;27;8860;-78
2022/10/18 14:46:22;;;;;;;;;2.00;2.00;;;;;;;;5061107;27;8850;-80
2022/10/18 14:48:55;;;;;;;;;2.00;2.00;;;;;;;;5059070;27;8995;-78
2022/10/18 14:51:22;;;;;;;;;1.80;1.60;;;;;;;;5064114;27;8818;-78
2022/10/18 14:53:52;;;;;;;;;1.00;1.00;;;;;;;;5062021;27;8943;-79
2022/10/18 14:56:24;;;;;;;;;0.60;0.60;;;;;;;;5081173;27;8828;-78
2022/10/18 14:58:52;;;;;;;;;1.80;1.80;;;;;;;;5070357;27;8847;-78
2022/10/18 15:01:21;;;;;;;;;3.00;3.00;;;;;;;;5038817;27;8869;-78
2022/10/18 15:03:49;;;;;;;;;1.40;1.40;;;;;;;;5044821;27;8850;-78
2022/10/18 15:06:19;;;;;;;;;0.60;0.60;;;;;;;;5091151;27;8858;-77
2022/10/18 15:08:52;;;;;;;;;1.40;1.40;;;;;;;;5082095;27;8845;-78
2022/10/18 15:11:20;;;;;;;;;0.60;0.60;;;;;;;;5078509;27;8949;-78
2022/10/18 15:13:50;;;;;;;;;1.40;1.40;;;;;;;;5076033;27;8827;-78
2022/10/18 15:16:19;;;;;;;;;0.60;0.60;;;;;;;;5066471;27;8942;-79
2022/10/18 15:19:00;;;;;;;;;0.60;0.60;;;;;;;;5069199;27;8916;-78